Fuyun, China
Current Conditions -  °F | °C
As of 4:30 PM on Tuesday 21 Oct 2014 (Local Time) from ZWWW Reporting Station
Clear Clear  
Wind Chill: 77°   Ceiling: Unl
Heat Index: 77°   Visibility: 5mi
Dew Point: 34°   Wind: 4mph
Humidity: 21%   Direction: 360°N
Pressure: 29.94"   Gusts: NA
Location:  46.98°N, 89.52°E
Report Text: ZWWW 210830Z 36002MPS 330V040 8000 NSC 25/01 Q1014 NOSIG
Loading
Personal Weather Stations






























Interactive Weather Map
Tropical Storm Tracking
New forecast layout! Learn more

10-Day Weather Forecast

Advertisements
Track Severe Weather on mobile